Time;durP1;ratioP1;P1;durP2;ratioP2;P2;SDS_P1;SDS_P2;PMS_P1;PMS_P2;Temp;Humidity;BMP_temperature;BMP_pressure;BME280_temperature;BME280_humidity;BME280_pressure;Samples;Min_cycle;Max_cycle;Signal;HPM_P1;HPM_P2
2023/07/13 00:01:29;;;;;;;10.00;2.10;;;18.60;99.90;;;;;;5043158;22;20140;-92
2023/07/13 00:04:15;;;;;;;5.80;2.15;;;17.20;99.90;;;;;;5043367;22;20053;-90
2023/07/13 00:06:45;;;;;;;7.05;2.38;;;18.50;99.90;;;;;;5043793;22;20435;-92
2023/07/13 00:09:32;;;;;;;9.75;2.33;;;18.60;99.90;;;;;;5043185;22;20103;-91
2023/07/13 00:11:57;;;;;;;4.38;2.10;;;18.70;99.90;;;;;;5036660;28;20021;-92
2023/07/13 00:14:25;;;;;;;8.68;2.38;;;18.60;99.90;;;;;;5057142;28;20106;-90
2023/07/13 00:16:51;;;;;;;12.20;2.85;;;18.70;99.90;;;;;;5139981;22;20033;-92
2023/07/13 00:21:57;;;;;;;6.55;2.17;;;18.70;99.90;;;;;;5115336;22;20029;-91
2023/07/13 00:24:29;;;;;;;11.63;3.00;;;18.70;99.90;;;;;;5038419;28;20037;-91
2023/07/13 00:26:55;;;;;;;8.25;2.00;;;18.70;99.90;;;;;;5037711;28;20021;-93
2023/07/13 00:29:21;;;;;;;4.82;2.20;;;18.70;99.90;;;;;;5036000;28;20051;-93
2023/07/13 00:31:47;;;;;;;7.35;2.83;;;18.70;99.90;;;;;;5042288;22;20052;-92
2023/07/13 00:36:44;;;;;;;13.43;2.85;;;18.60;99.90;;;;;;5040229;22;20090;-92
2023/07/13 00:39:22;;;;;;;13.57;2.85;;;18.50;99.90;;;;;;5035557;28;20021;-92
2023/07/13 00:41:48;;;;;;;10.85;2.63;;;18.50;99.90;;;;;;5035341;28;20615;-93
2023/07/13 00:44:16;;;;;;;14.40;2.83;;;17.90;99.90;;;;;;5035584;28;20049;-93
2023/07/13 00:46:42;;;;;;;11.30;2.90;;;18.10;99.90;;;;;;5034916;28;20496;-92
2023/07/13 00:52:06;;;;;;;12.10;2.88;;;18.40;99.90;;;;;;5059997;23;20159;-93
2023/07/13 00:54:38;;;;;;;10.80;2.95;;;18.30;99.90;;;;;;5054996;28;20036;-94
2023/07/13 00:57:07;;;;;;;10.85;2.90;;;18.30;99.90;;;;;;5055400;28;20025;-94
2023/07/13 00:59:45;;;;;;;10.80;2.80;;;18.30;99.90;;;;;;5055043;28;20025;-93
2023/07/13 01:04:48;;;;;;;14.18;3.70;;;18.20;99.90;;;;;;5055722;22;20065;-91
2023/07/13 01:07:15;;;;;;;12.20;2.80;;;18.20;99.90;;;;;;5035165;28;20025;-93
2023/07/13 01:09:59;;;;;;;10.32;2.25;;;18.20;99.90;;;;;;5040646;28;20024;-93
2023/07/13 01:12:24;;;;;;;8.73;2.67;;;18.20;99.90;;;;;;5169057;22;20209;-93
2023/07/13 01:17:46;;;;;;;8.30;2.60;;;18.20;99.90;;;;;;5057210;28;20030;-91
2023/07/13 01:20:14;;;;;;;9.65;2.85;;;18.10;99.90;;;;;;5058921;23;20136;-93
2023/07/13 01:22:52;;;;;;;8.85;2.35;;;18.10;99.90;;;;;;5040402;28;20022;-91
2023/07/13 01:25:38;;;;;;;9.48;2.45;;;18.10;99.90;;;;;;5036999;28;20036;-92
2023/07/13 01:28:23;;;;;;;11.07;2.92;;;18.10;99.90;;;;;;5034797;28;20037;-93
2023/07/13 01:30:49;;;;;;;10.93;2.67;;;18.00;99.90;;;;;;5032625;28;20033;-92
2023/07/13 01:33:17;;;;;;;14.13;3.33;;;18.00;99.90;;;;;;5044408;22;20049;-92
2023/07/13 01:35:45;;;;;;;8.35;3.25;;;18.00;99.90;;;;;;5054489;28;20029;-92
2023/07/13 01:41:16;;;;;;;10.02;3.55;;;18.00;99.90;;;;;;5044082;22;20060;-93
2023/07/13 01:43:43;;;;;;;14.73;3.30;;;17.70;99.90;;;;;;5032857;23;20092;-92
2023/07/13 01:46:09;;;;;;;14.65;3.47;;;17.90;99.90;;;;;;5016197;28;20101;-93
2023/07/13 01:48:59;;;;;;;10.95;3.38;;;18.00;99.90;;;;;;5033308;23;20483;-92
2023/07/13 01:51:25;;;;;;;;;;;17.50;99.90;;;;;;5054222;28;20032;-92
2023/07/13 01:53:51;;;;;;;12.43;3.70;;;17.90;99.90;;;;;;5049782;23;19964;-93
2023/07/13 01:56:16;;;;;;;15.07;3.85;;;17.90;99.90;;;;;;5041732;23;20056;-92
2023/07/13 01:58:55;;;;;;;14.57;3.38;;;17.80;99.90;;;;;;5054031;28;20406;-92
2023/07/13 02:01:27;;;;;;;16.15;3.90;;;17.80;99.90;;;;;;5053933;28;20048;-92
2023/07/13 02:04:11;;;;;;;13.23;2.67;;;17.90;99.90;;;;;;5063678;23;20072;-93
2023/07/13 02:06:36;;;;;;;18.95;3.70;;;17.90;99.90;;;;;;5053704;28;20057;-93
2023/07/13 02:09:11;;;;;;;15.60;3.03;;;17.90;99.90;;;;;;5050341;23;20052;-93
2023/07/13 02:11:48;;;;;;;14.55;3.35;;;17.90;99.90;;;;;;5048592;23;20064;-92
2023/07/13 02:14:15;;;;;;;7.93;2.85;;;17.60;99.90;;;;;;5054313;28;20033;-92
2023/07/13 02:16:54;;;;;;;8.70;2.97;;;17.90;99.90;;;;;;5060617;23;20073;-93
2023/07/13 02:19:20;;;;;;;10.18;3.55;;;17.50;99.90;;;;;;5054738;28;20096;-93
2023/07/13 02:24:20;;;;;;;9.57;2.45;;;18.00;99.90;;;;;;5046651;23;19921;-93
2023/07/13 02:27:08;;;;;;;9.40;2.50;;;17.90;99.90;;;;;;5033990;28;20033;-93
2023/07/13 02:29:34;;;;;;;8.32;3.10;;;17.90;99.90;;;;;;5033742;28;20060;-92
2023/07/13 02:31:59;;;;;;;9.77;2.75;;;17.90;99.90;;;;;;5033429;28;20032;-93
2023/07/13 02:34:25;;;;;;;12.60;3.53;;;17.90;99.90;;;;;;5033542;28;20030;-93
2023/07/13 02:36:54;;;;;;;12.70;3.05;;;17.90;99.90;;;;;;5040038;23;20572;-91
2023/07/13 02:39:46;;;;;;;11.35;3.15;;;17.90;99.90;;;;;;5033049;28;20033;-93
2023/07/13 02:42:29;;;;;;;7.75;2.63;;;17.80;99.90;;;;;;4956696;28;20619;-92
2023/07/13 02:44:55;;;;;;;11.55;2.95;;;17.80;99.90;;;;;;4957397;28;20116;-94
2023/07/13 02:47:20;;;;;;;7.43;3.00;;;17.80;99.90;;;;;;5017371;28;20134;-93
2023/07/13 02:49:46;;;;;;;8.68;2.90;;;17.70;99.90;;;;;;5036829;28;20038;-92
2023/07/13 02:52:18;;;;;;;10.02;3.10;;;17.70;99.90;;;;;;5037335;28;20033;-92
2023/07/13 02:54:44;;;;;;;14.63;4.05;;;17.40;99.90;;;;;;5037121;28;20112;-92
2023/07/13 02:57:24;;;;;;;10.38;3.47;;;17.70;99.90;;;;;;5043345;23;20099;-92
2023/07/13 03:00:06;;;;;;;15.90;4.28;;;17.70;99.90;;;;;;5140259;23;20033;-93
2023/07/13 03:02:39;;;;;;;12.95;3.42;;;17.70;99.90;;;;;;5076898;28;20055;-93
2023/07/13 03:05:19;;;;;;;17.85;3.25;;;17.60;99.90;;;;;;5065312;28;20541;-92
2023/07/13 03:10:23;;;;;;;22.50;5.43;;;17.60;99.90;;;;;;5067005;23;20040;-93
2023/07/13 03:12:48;;;;;;;13.40;4.53;;;17.60;99.90;;;;;;5056581;28;20029;-94
2023/07/13 03:15:27;;;;;;;28.40;5.00;;;17.50;99.90;;;;;;5055822;28;20025;-93
2023/07/13 03:17:53;;;;;;;15.77;4.43;;;17.50;99.90;;;;;;5048294;22;20053;-95
2023/07/13 03:20:20;;;;;;;15.88;3.78;;;17.40;99.90;;;;;;5036992;28;20033;-93
2023/07/13 03:25:58;;;;;;;11.95;4.90;;;17.50;99.90;;;;;;5175373;23;20033;-92
2023/07/13 03:28:28;;;;;;;17.40;5.30;;;17.50;99.90;;;;;;5053421;23;20053;-94
2023/07/13 03:31:33;;;;;;;23.20;5.70;;;17.30;99.90;;;;;;5534420;23;20149;-95
2023/07/13 03:37:45;;;;;;;20.58;5.43;;;17.30;99.90;;;;;;5041221;23;20464;-95
2023/07/13 03:43:56;;;;;;;20.10;5.07;;;17.40;99.90;;;;;;5077936;23;20076;-92
2023/07/13 04:01:34;;;;;;;27.33;7.10;;;17.30;99.90;;;;;;5013013;28;20042;-92
2023/07/13 04:20:14;;;;;;;25.30;6.18;;;17.00;99.90;;;;;;5019409;23;20049;-91
2023/07/13 04:22:44;;;;;;;21.38;6.00;;;17.00;99.90;;;;;;5028793;28;20029;-93
2023/07/13 04:25:09;;;;;;;19.92;5.47;;;17.40;99.90;;;;;;5048390;28;20022;-91
2023/07/13 04:27:36;;;;;;;24.58;6.35;;;17.40;99.90;;;;;;5040709;28;20032;-94
2023/07/13 04:30:02;;;;;;;30.25;5.90;;;17.40;99.90;;;;;;5015795;28;20042;-93
2023/07/13 04:32:28;;;;;;;19.60;4.95;;;17.30;99.90;;;;;;5015716;28;20030;-94
2023/07/13 04:35:11;;;;;;;29.48;6.88;;;17.30;99.90;;;;;;5016093;28;20064;-94
2023/07/13 04:37:37;;;;;;;21.27;6.53;;;17.30;99.90;;;;;;5050636;23;20057;-94
2023/07/13 04:40:03;;;;;;;21.35;6.50;;;17.40;99.90;;;;;;5035878;23;20413;-90
2023/07/13 04:42:29;;;;;;;19.95;5.80;;;17.40;99.90;;;;;;5011276;28;20031;-91
2023/07/13 04:45:16;;;;;;;24.08;6.22;;;17.40;99.90;;;;;;5008205;28;20018;-90
2023/07/13 04:47:45;;;;;;;29.92;6.72;;;17.40;99.90;;;;;;5003167;28;20026;-91
2023/07/13 04:50:20;;;;;;;23.27;6.15;;;17.30;99.90;;;;;;5023643;28;20046;-90
2023/07/13 04:52:59;;;;;;;21.35;5.95;;;17.40;99.90;;;;;;5006985;28;20030;-90
2023/07/13 04:55:24;;;;;;;19.48;6.20;;;17.40;99.90;;;;;;5006987;28;20036;-91
2023/07/13 04:57:51;;;;;;;29.23;7.22;;;17.40;99.90;;;;;;5008795;28;20104;-91
2023/07/13 05:00:16;;;;;;;22.45;6.47;;;17.50;99.90;;;;;;5001066;28;20084;-91
2023/07/13 05:02:45;;;;;;;17.05;5.88;;;17.50;99.90;;;;;;5003229;28;20047;-92
2023/07/13 05:05:20;;;;;;;24.63;6.75;;;17.50;99.90;;;;;;5003785;28;20466;-92
2023/07/13 05:07:51;;;;;;;29.30;7.35;;;17.50;99.90;;;;;;5011157;23;20445;-92
2023/07/13 05:10:17;;;;;;;27.42;7.88;;;17.60;99.90;;;;;;5006981;28;20050;-92
2023/07/13 05:12:43;;;;;;;21.25;7.22;;;17.60;99.90;;;;;;5003699;28;20033;-91
2023/07/13 05:15:09;;;;;;;21.63;6.85;;;17.60;99.90;;;;;;5005420;28;20026;-90
2023/07/13 05:17:35;;;;;;;22.85;7.13;;;17.60;99.90;;;;;;5004149;28;20367;-92
2023/07/13 05:20:13;;;;;;;22.13;6.80;;;17.60;99.90;;;;;;5004072;28;20029;-91
2023/07/13 05:22:42;;;;;;;27.10;6.70;;;17.70;99.90;;;;;;5005840;28;20018;-92
2023/07/13 05:25:09;;;;;;;22.38;7.20;;;17.70;99.90;;;;;;5003317;28;20022;-92
2023/07/13 05:27:36;;;;;;;19.80;5.93;;;17.70;99.90;;;;;;5003899;28;20026;-92
2023/07/13 05:30:02;;;;;;;21.23;6.63;;;17.70;99.90;;;;;;5003139;28;20034;-90
2023/07/13 05:32:28;;;;;;;24.63;5.82;;;17.70;99.90;;;;;;5027502;23;20053;-90
2023/07/13 05:34:54;;;;;;;31.02;6.50;;;17.80;99.90;;;;;;5025791;28;20026;-90
2023/07/13 05:37:31;;;;;;;25.42;6.32;;;17.80;99.90;;;;;;5021358;28;20388;-90
2023/07/13 05:39:57;;;;;;;27.75;6.43;;;17.90;99.90;;;;;;5014343;28;20029;-89
2023/07/13 05:44:56;;;;;;;19.83;6.45;;;18.00;99.90;;;;;;5035465;23;20046;-89
2023/07/13 05:47:22;;;;;;;23.33;6.82;;;18.00;99.90;;;;;;5016940;28;20091;-90
2023/07/13 05:49:47;;;;;;;22.85;7.53;;;17.90;99.90;;;;;;5021055;28;20081;-92
2023/07/13 05:52:13;;;;;;;21.55;9.13;;;17.90;99.90;;;;;;5014607;28;20108;-90
2023/07/13 05:54:51;;;;;;;24.42;6.72;;;17.90;99.90;;;;;;5014207;28;20096;-91
2023/07/13 05:57:24;;;;;;;36.60;8.35;;;18.00;99.90;;;;;;5014161;28;20026;-92
2023/07/13 05:59:50;;;;;;;29.25;7.43;;;17.90;99.90;;;;;;5014561;28;20029;-91
2023/07/13 06:02:18;;;;;;;23.55;7.05;;;18.00;99.90;;;;;;5014262;28;20100;-91
2023/07/13 06:04:44;;;;;;;25.65;7.32;;;17.90;99.90;;;;;;5013943;28;20373;-91
2023/07/13 06:07:10;;;;;;;22.10;7.32;;;18.00;99.90;;;;;;5014250;28;20026;-92
2023/07/13 06:09:35;;;;;;;18.90;8.55;;;18.00;99.90;;;;;;5013781;28;20429;-91
2023/07/13 06:12:01;;;;;;;20.15;7.70;;;18.00;99.90;;;;;;5005817;28;20014;-91
2023/07/13 06:14:27;;;;;;;25.15;7.93;;;18.00;99.90;;;;;;4997586;28;20382;-89
2023/07/13 06:16:52;;;;;;;21.35;7.18;;;18.10;99.90;;;;;;4993908;28;20026;-90
2023/07/13 06:19:21;;;;;;;29.08;7.00;;;18.10;99.90;;;;;;4995562;28;20485;-91
2023/07/13 06:22:00;;;;;;;28.58;8.90;;;18.20;99.90;;;;;;4994179;28;20019;-90
2023/07/13 06:24:26;;;;;;;17.67;7.07;;;18.30;99.90;;;;;;4993743;28;20041;-92
2023/07/13 06:26:52;;;;;;;22.38;7.47;;;18.30;99.90;;;;;;4994465;28;20030;-89
2023/07/13 06:29:26;;;;;;;25.23;7.28;;;18.30;99.90;;;;;;4994277;28;20394;-90
2023/07/13 06:31:51;;;;;;;26.55;7.13;;;18.10;99.90;;;;;;4993951;28;20030;-90
2023/07/13 06:34:17;;;;;;;17.98;7.05;;;18.20;99.90;;;;;;4999412;28;20496;-89
2023/07/13 06:36:52;;;;;;;22.27;7.38;;;18.20;99.90;;;;;;5029365;23;20057;-90
2023/07/13 06:39:18;;;;;;;21.60;7.35;;;18.10;99.90;;;;;;5048971;28;20036;-88
2023/07/13 06:41:44;;;;;;;24.92;8.57;;;18.20;99.90;;;;;;5041341;28;20029;-91
2023/07/13 06:44:13;;;;;;;20.20;9.30;;;18.10;99.90;;;;;;5034339;28;20083;-93
2023/07/13 06:46:44;;;;;;;27.83;8.18;;;18.10;99.90;;;;;;5040943;23;20054;-90
2023/07/13 06:49:16;;;;;;;25.77;9.48;;;18.10;99.90;;;;;;5040593;23;20081;-90
2023/07/13 06:51:42;;;;;;;25.48;9.35;;;18.10;99.90;;;;;;5033546;28;20030;-92
2023/07/13 06:54:07;;;;;;;27.02;8.98;;;18.10;99.90;;;;;;5031467;28;20135;-91
2023/07/13 06:56:34;;;;;;;22.27;9.40;;;18.10;99.90;;;;;;5047655;28;20372;-90
2023/07/13 06:59:05;;;;;;;19.58;9.75;;;18.10;99.90;;;;;;5051069;28;20226;-89
2023/07/13 07:01:31;;;;;;;22.52;9.63;;;18.10;99.90;;;;;;5036976;28;20021;-91
2023/07/13 07:03:57;;;;;;;36.33;10.38;;;18.10;99.90;;;;;;5032861;28;20072;-90
2023/07/13 07:06:23;;;;;;;23.98;10.00;;;18.10;99.90;;;;;;5043810;23;21928;-90
2023/07/13 07:08:49;;;;;;;20.80;10.07;;;18.10;99.90;;;;;;5030590;28;20049;-90
2023/07/13 07:11:26;;;;;;;21.52;9.52;;;18.10;99.90;;;;;;5040061;28;20022;-90
2023/07/13 07:13:52;;;;;;;29.67;9.65;;;18.10;99.90;;;;;;5040512;28;20085;-91
2023/07/13 07:16:27;;;;;;;23.60;9.77;;;18.10;99.90;;;;;;5035571;28;20102;-90
2023/07/13 07:18:58;;;;;;;21.42;9.00;;;18.10;99.90;;;;;;5036592;28;20086;-91
2023/07/13 07:21:33;;;;;;;22.15;10.10;;;18.10;99.90;;;;;;5035933;28;20020;-90
2023/07/13 07:24:08;;;;;;;28.60;9.55;;;18.00;99.90;;;;;;5034255;28;20021;-89
2023/07/13 07:26:34;;;;;;;18.92;9.60;;;18.10;99.90;;;;;;5025938;28;20014;-92
2023/07/13 07:29:06;;;;;;;28.83;11.48;;;18.10;99.90;;;;;;5030814;23;20057;-90
2023/07/13 07:31:34;;;;;;;29.95;10.27;;;18.10;99.90;;;;;;5034874;28;20044;-89
2023/07/13 07:34:00;;;;;;;19.77;8.68;;;18.00;99.90;;;;;;5061115;28;20056;-90
2023/07/13 07:36:37;;;;;;;17.92;8.55;;;17.90;99.90;;;;;;5054894;28;20029;-94
2023/07/13 07:39:08;;;;;;;8.45;5.65;;;17.70;99.90;;;;;;5049600;28;20033;-93
2023/07/13 07:41:52;;;;;;;10.73;4.05;;;17.70;99.90;;;;;;5034943;28;20025;-92
2023/07/13 07:44:18;;;;;;;10.32;2.53;;;17.50;99.90;;;;;;5036283;28;20116;-92
2023/07/13 07:46:44;;;;;;;8.02;4.15;;;17.50;99.90;;;;;;5036209;28;20049;-93
2023/07/13 07:49:10;;;;;;;10.32;3.78;;;17.50;99.90;;;;;;5039716;28;20047;-92
2023/07/13 07:51:36;;;;;;;9.90;3.00;;;17.40;99.90;;;;;;5051481;28;20025;-91
2023/07/13 07:54:14;;;;;;;5.97;2.85;;;17.20;99.90;;;;;;5055027;28;20036;-88
2023/07/13 07:56:42;;;;;;;8.10;3.85;;;17.20;99.90;;;;;;5042123;28;20021;-91
2023/07/13 07:59:08;;;;;;;6.65;3.95;;;17.20;99.90;;;;;;5046206;28;20053;-86
2023/07/13 08:01:34;;;;;;;6.45;3.63;;;17.30;99.90;;;;;;5042553;28;20056;-88
2023/07/13 08:04:00;;;;;;;5.55;3.00;;;17.40;99.90;;;;;;5040072;28;20033;-94
2023/07/13 08:06:25;;;;;;;8.45;3.15;;;17.20;99.90;;;;;;5047420;28;20044;-92
2023/07/13 08:08:51;;;;;;;4.53;2.53;;;17.10;99.90;;;;;;5280092;23;20060;-87
2023/07/13 08:11:35;;;;;;;2.83;1.85;;;17.20;99.90;;;;;;5056571;28;20025;-94
2023/07/13 08:14:20;;;;;;;6.90;2.50;;;17.20;99.90;;;;;;5033136;23;20562;-95
2023/07/13 08:16:55;;;;;;;6.20;2.65;;;17.30;99.90;;;;;;5052793;28;20047;-94
2023/07/13 08:19:28;;;;;;;3.72;2.30;;;17.40;99.90;;;;;;5055806;28;20118;-94
2023/07/13 08:22:47;;;;;;;7.38;2.80;;;17.30;99.90;;;;;;5271513;23;20458;-96
2023/07/13 08:27:49;;;;;;;6.65;3.30;;;17.80;99.90;;;;;;5069408;22;20053;-89
2023/07/13 08:30:14;;;;;;;7.15;3.60;;;17.90;99.90;;;;;;5077467;23;20046;-90
2023/07/13 08:32:53;;;;;;;8.27;3.70;;;17.90;99.90;;;;;;5000468;28;20371;-90
2023/07/13 08:35:19;;;;;;;6.78;3.78;;;18.00;99.90;;;;;;4997945;28;20027;-87
2023/07/13 08:37:44;;;;;;;12.10;4.72;;;18.00;99.90;;;;;;4994645;28;20417;-84
2023/07/13 08:40:11;;;;;;;9.63;3.70;;;17.90;99.90;;;;;;5000050;28;20029;-85
2023/07/13 08:42:46;;;;;;;7.97;4.75;;;17.90;99.90;;;;;;5011832;28;20117;-84
2023/07/13 08:45:46;;;;;;;8.00;3.60;;;18.00;99.90;;;;;;5013421;28;20033;-84
2023/07/13 08:48:23;;;;;;;10.27;4.00;;;18.00;99.90;;;;;;4971515;28;20517;-84
2023/07/13 08:50:58;;;;;;;12.38;3.33;;;17.90;99.90;;;;;;5013935;28;20061;-83
2023/07/13 08:53:25;;;;;;;5.40;3.63;;;17.90;99.90;;;;;;5013357;28;20374;-82
2023/07/13 08:55:57;;;;;;;12.30;4.28;;;17.90;99.90;;;;;;5012750;28;20026;-84
2023/07/13 08:58:28;;;;;;;9.98;3.60;;;18.00;99.90;;;;;;5011322;28;20029;-82
2023/07/13 09:01:35;;;;;;;9.38;3.75;;;18.10;99.90;;;;;;5010199;28;20025;-83
2023/07/13 09:04:14;;;;;;;7.88;3.40;;;18.20;99.90;;;;;;5011472;28;20026;-83
2023/07/13 09:07:03;;;;;;;10.35;3.75;;;18.30;99.90;;;;;;5010959;28;20026;-84
2023/07/13 09:10:02;;;;;;;9.60;3.22;;;18.40;99.90;;;;;;5011492;28;20096;-85
2023/07/13 09:13:01;;;;;;;10.95;3.67;;;18.50;99.90;;;;;;5011784;28;20033;-84
2023/07/13 09:15:34;;;;;;;11.10;3.15;;;18.40;99.90;;;;;;5012769;28;20484;-85
2023/07/13 09:18:19;;;;;;;7.20;2.85;;;18.30;99.90;;;;;;5013856;28;20018;-85
2023/07/13 09:20:48;;;;;;;16.13;4.40;;;18.30;99.90;;;;;;5014107;28;20022;-87
2023/07/13 09:23:19;;;;;;;7.95;3.25;;;18.20;99.90;;;;;;5020946;28;20026;-87
2023/07/13 09:25:50;;;;;;;7.40;3.70;;;18.20;99.90;;;;;;5014670;28;20511;-85
2023/07/13 09:28:25;;;;;;;6.05;3.60;;;18.20;99.90;;;;;;5012896;28;20108;-84
2023/07/13 09:31:12;;;;;;;3.90;2.78;;;18.30;99.90;;;;;;5009576;28;20131;-85
2023/07/13 09:33:38;;;;;;;8.20;2.55;;;18.30;99.90;;;;;;5001709;28;20038;-86
2023/07/13 09:36:30;;;;;;;6.65;3.22;;;18.40;99.90;;;;;;4999981;28;20061;-82
2023/07/13 09:39:29;;;;;;;6.63;3.67;;;18.40;99.90;;;;;;5001807;28;20032;-84
2023/07/13 09:41:55;;;;;;;7.38;3.08;;;18.50;99.90;;;;;;5000302;28;20385;-82
2023/07/13 09:44:43;;;;;;;3.58;2.97;;;18.40;99.90;;;;;;5001803;28;20076;-85
2023/07/13 09:47:23;;;;;;;8.80;5.28;;;18.30;99.90;;;;;;5000815;28;20069;-80
2023/07/13 09:49:55;;;;;;;7.18;3.65;;;18.20;99.90;;;;;;4992294;28;20128;-88
2023/07/13 09:52:21;;;;;;;9.60;3.40;;;18.10;99.90;;;;;;4990284;28;20107;-88
2023/07/13 09:55:32;;;;;;;;;;;;;;;;;;;;;
2023/07/13 11:01:01;;;;;;;11.25;4.10;;;18.90;99.90;;;;;;5032420;28;20107;-94
2023/07/13 11:06:34;;;;;;;10.05;3.90;;;19.20;99.90;;;;;;4962503;23;20107;-92
2023/07/13 11:12:47;;;;;;;10.88;4.20;;;19.40;99.90;;;;;;4966161;28;20130;-91
2023/07/13 11:15:47;;;;;;;6.22;3.35;;;19.90;99.90;;;;;;5064514;23;20054;-93
2023/07/13 11:18:34;;;;;;;8.30;3.00;;;19.80;99.90;;;;;;4977317;28;20023;-92
2023/07/13 11:31:36;;;;;;;3.13;2.38;;;19.80;99.90;;;;;;5108737;23;20045;-93
2023/07/13 11:45:46;;;;;;;4.43;2.63;;;20.00;99.90;;;;;;4954407;28;20056;-87
2023/07/13 11:48:43;;;;;;;;;;;;;;;;;;;;;
2023/07/13 11:51:41;;;;;;;5.32;3.13;;;20.10;99.90;;;;;;4940373;29;20043;-89
2023/07/13 11:57:28;;;;;;;6.88;3.30;;;20.10;99.90;;;;;;4966226;23;20414;-89
2023/07/13 12:03:04;;;;;;;5.72;3.15;;;19.80;99.90;;;;;;5009846;23;19922;-86
2023/07/13 12:06:27;;;;;;;4.70;2.60;;;19.90;99.90;;;;;;4995517;28;20022;-90
2023/07/13 12:09:25;;;;;;;5.68;3.10;;;20.00;99.90;;;;;;4972123;28;20397;-92
2023/07/13 12:28:33;;;;;;;;;;;;;;;;;;;;;
2023/07/13 12:49:56;;;;;;;6.55;2.58;;;20.40;99.90;;;;;;5129320;23;20395;-87
2023/07/13 12:55:14;;;;;;;6.95;2.88;;;20.40;99.90;;;;;;4991210;28;20089;-90
2023/07/13 13:01:22;;;;;;;;;;;;;;;;;;;;;
2023/07/13 13:03:52;;;;;;;4.63;2.50;;;20.50;99.90;;;;;;4985547;23;20054;-90
2023/07/13 13:57:12;;;;;;;3.38;2.20;;;21.10;99.90;;;;;;5197122;23;20281;-91
2023/07/13 14:05:04;;;;;;;3.72;1.90;;;21.10;99.90;;;;;;4980873;23;20074;-90
2023/07/13 14:07:45;;;;;;;3.20;1.98;;;21.20;99.90;;;;;;4973963;28;20030;-90
2023/07/13 14:10:14;;;;;;;3.65;1.98;;;21.30;99.90;;;;;;4973650;28;20045;-90
2023/07/13 14:12:57;;;;;;;2.50;1.90;;;21.40;99.90;;;;;;4962802;28;20057;-89
2023/07/13 14:15:28;;;;;;;2.10;1.85;;;21.40;99.90;;;;;;4971319;28;20113;-90
2023/07/13 14:17:55;;;;;;;2.47;1.70;;;21.50;99.90;;;;;;4971156;28;20034;-90
2023/07/13 14:20:38;;;;;;;2.38;1.45;;;21.40;99.90;;;;;;4982936;23;20057;-89
2023/07/13 14:23:19;;;;;;;2.13;1.65;;;21.20;99.90;;;;;;4989321;28;20026;-89
2023/07/13 14:26:00;;;;;;;2.75;1.55;;;21.50;99.90;;;;;;4990264;28;20022;-90
2023/07/13 14:28:27;;;;;;;2.38;1.58;;;21.50;99.90;;;;;;4998032;23;20109;-89
2023/07/13 14:30:56;;;;;;;3.33;1.27;;;21.60;99.70;;;;;;4992075;28;20031;-89
2023/07/13 14:33:34;;;;;;;4.50;2.00;;;21.70;99.90;;;;;;4993302;28;20030;-89
2023/07/13 14:36:00;;;;;;;5.65;1.60;;;21.70;99.90;;;;;;4993802;28;20053;-89
2023/07/13 14:38:32;;;;;;;4.72;1.67;;;21.80;99.90;;;;;;4997929;28;20478;-89
2023/07/13 14:41:04;;;;;;;3.85;1.73;;;21.80;99.30;;;;;;5002893;23;20481;-88
2023/07/13 14:43:48;;;;;;;3.58;2.75;;;21.80;99.80;;;;;;4976995;28;20051;-88
2023/07/13 14:46:36;;;;;;;3.00;1.48;;;21.70;99.50;;;;;;4978926;28;20035;-89
2023/07/13 14:49:07;;;;;;;5.00;2.25;;;21.40;99.60;;;;;;4985726;23;20047;-88
2023/07/13 14:51:33;;;;;;;;;;;21.50;99.40;;;;;;4987317;28;20053;-89
2023/07/13 14:54:18;;;;;;;4.85;1.77;;;21.60;99.80;;;;;;4984936;23;19961;-89
2023/07/13 14:59:09;;;;;;;5.88;2.00;;;21.80;99.90;;;;;;5000930;23;20080;-89
2023/07/13 15:01:50;;;;;;;1.67;1.42;;;21.80;99.80;;;;;;4997518;28;20030;-89
2023/07/13 15:04:34;;;;;;;4.40;1.55;;;21.90;99.90;;;;;;4997153;28;20030;-90
2023/07/13 15:07:02;;;;;;;3.88;1.50;;;22.00;99.90;;;;;;4997113;28;20054;-89
2023/07/13 15:09:46;;;;;;;4.15;1.40;;;22.00;99.90;;;;;;5014618;23;20126;-89
2023/07/13 15:12:19;;;;;;;6.38;2.40;;;22.00;99.70;;;;;;4996334;28;20030;-89
2023/07/13 15:14:45;;;;;;;3.25;1.38;;;22.00;99.40;;;;;;4996994;28;20497;-90
2023/07/13 15:17:55;;;;;;;3.50;1.30;;;22.00;99.20;;;;;;4997095;28;20030;-89
2023/07/13 15:23:14;;;;;;;4.35;1.60;;;22.20;99.90;;;;;;5004228;23;20477;-89
2023/07/13 15:28:14;;;;;;;1.77;1.45;;;22.40;99.30;;;;;;5001267;23;20077;-89
2023/07/13 15:30:45;;;;;;;2.75;1.45;;;22.40;99.20;;;;;;4996349;28;20038;-89
2023/07/13 15:33:28;;;;;;;3.70;1.40;;;22.50;99.50;;;;;;4996627;28;20489;-89
2023/07/13 15:35:55;;;;;;;2.40;1.40;;;22.60;99.60;;;;;;5003388;23;20061;-90
2023/07/13 15:38:31;;;;;;;2.22;1.35;;;22.70;99.50;;;;;;4996680;28;20046;-89
2023/07/13 15:43:26;;;;;;;3.13;1.60;;;22.80;99.20;;;;;;5021120;23;20101;-89
2023/07/13 15:48:38;;;;;;;2.00;1.45;;;23.00;99.70;;;;;;5026807;23;20074;-89
2023/07/13 15:53:56;;;;;;;2.00;1.30;;;23.00;99.10;;;;;;5020658;23;20062;-90
2023/07/13 15:59:30;;;;;;;2.05;1.30;;;22.80;99.90;;;;;;4998314;28;20033;-91
2023/07/13 16:01:58;;;;;;;4.07;2.25;;;23.20;99.90;;;;;;4995955;28;20019;-90
2023/07/13 16:04:32;;;;;;;7.05;2.22;;;23.20;98.60;;;;;;4996117;28;20026;-90
2023/07/13 16:06:58;;;;;;;1.75;1.40;;;23.50;98.40;;;;;;4996697;28;20050;-91
2023/07/13 16:09:33;;;;;;;3.00;1.40;;;23.60;98.80;;;;;;5008858;23;20046;-92
2023/07/13 16:11:58;;;;;;;5.63;1.48;;;23.50;98.80;;;;;;4996152;28;20474;-88
2023/07/13 16:14:39;;;;;;;2.22;1.40;;;23.90;99.10;;;;;;5008969;23;20193;-89
2023/07/13 16:19:30;;;;;;;3.65;1.73;;;24.00;98.60;;;;;;4997733;23;20074;-90
2023/07/13 16:24:56;;;;;;;2.75;1.70;;;23.80;98.20;;;;;;5000972;23;20656;-89
2023/07/13 16:27:33;;;;;;;2.55;2.00;;;22.80;98.00;;;;;;4996072;28;20018;-89
2023/07/13 16:32:30;;;;;;;5.25;1.75;;;23.60;98.20;;;;;;5027496;23;20149;-89
2023/07/13 16:34:56;;;;;;;5.80;2.15;;;23.70;98.90;;;;;;5015816;28;20053;-89
2023/07/13 16:37:28;;;;;;;4.47;1.70;;;23.60;98.40;;;;;;5015581;28;20026;-89
2023/07/13 16:40:21;;;;;;;6.18;1.98;;;23.20;98.50;;;;;;5021709;28;20093;-89
2023/07/13 16:42:46;;;;;;;9.18;3.28;;;22.90;99.20;;;;;;5021581;28;20030;-88
2023/07/13 16:45:12;;;;;;;7.20;2.67;;;22.60;99.30;;;;;;5015414;28;20033;-88
2023/07/13 16:47:54;;;;;;;5.45;2.17;;;22.40;99.90;;;;;;5015355;28;20022;-88
2023/07/13 16:53:36;;;;;;;3.75;2.10;;;22.30;99.90;;;;;;5015654;28;20488;-89
2023/07/13 16:56:04;;;;;;;4.40;1.77;;;22.30;99.90;;;;;;5012188;28;20041;-88
2023/07/13 16:58:39;;;;;;;5.50;2.13;;;22.30;99.90;;;;;;5014631;28;20026;-89
2023/07/13 17:01:23;;;;;;;2.92;2.03;;;22.30;99.90;;;;;;5015547;28;20050;-88
2023/07/13 17:04:09;;;;;;;3.65;2.15;;;22.10;99.90;;;;;;5014503;28;20190;-89
2023/07/13 17:06:46;;;;;;;2.55;1.48;;;22.10;99.90;;;;;;5017418;23;20018;-89
2023/07/13 17:09:34;;;;;;;2.47;1.30;;;22.40;99.90;;;;;;4956109;28;20047;-89
2023/07/13 17:12:00;;;;;;;6.20;2.40;;;22.90;99.90;;;;;;4996367;23;20046;-89
2023/07/13 17:14:43;;;;;;;2.85;2.00;;;22.80;99.90;;;;;;4995047;28;20053;-89
2023/07/13 17:17:29;;;;;;;2.72;1.45;;;23.00;99.90;;;;;;5001927;23;20062;-89
2023/07/13 17:20:18;;;;;;;2.35;1.70;;;23.20;99.90;;;;;;4995248;28;20105;-89
2023/07/13 17:22:45;;;;;;;4.28;1.25;;;23.20;99.20;;;;;;4994739;28;20045;-89
2023/07/13 17:25:14;;;;;;;3.05;1.30;;;23.20;98.70;;;;;;4994756;28;20041;-89
2023/07/13 17:27:58;;;;;;;3.20;1.55;;;23.10;98.70;;;;;;5001276;23;20054;-89
2023/07/13 18:12:40;;;;;;;;;;;;;;;;;;;;;
2023/07/13 18:26:15;;;;;;;2.97;1.70;;;22.30;99.90;;;;;;5143689;23;1312791;-89
2023/07/13 18:28:43;;;;;;;5.20;1.73;;;22.10;99.90;;;;;;4988553;28;20031;-87
2023/07/13 18:31:28;;;;;;;2.35;1.73;;;22.20;99.90;;;;;;4970281;28;20038;-87
2023/07/13 18:34:15;;;;;;;2.17;1.38;;;22.10;99.90;;;;;;4971522;28;20027;-88
2023/07/13 18:36:45;;;;;;;2.35;1.48;;;22.10;99.90;;;;;;4977639;23;20055;-88
2023/07/13 18:39:15;;;;;;;4.00;1.65;;;21.70;99.90;;;;;;4982766;28;20038;-88
2023/07/13 18:41:41;;;;;;;3.60;1.40;;;22.10;99.90;;;;;;4994140;28;20031;-87
2023/07/13 18:44:25;;;;;;;3.63;1.92;;;22.20;99.90;;;;;;4993622;28;20041;-87
2023/07/13 18:49:28;;;;;;;2.25;1.40;;;22.30;99.90;;;;;;5270986;23;20066;-88
2023/07/13 18:52:44;;;;;;;5.03;1.52;;;22.10;99.90;;;;;;4955569;28;20072;-86
2023/07/13 19:08:05;;;;;;;2.42;1.50;;;21.20;99.90;;;;;;4923689;28;20077;-88
2023/07/13 19:10:38;;;;;;;4.57;1.55;;;21.40;99.90;;;;;;4927476;29;20039;-87
2023/07/13 19:13:50;;;;;;;3.22;1.45;;;21.20;99.90;;;;;;4968622;23;20018;-86
2023/07/13 19:23:43;;;;;;;8.48;2.03;;;20.70;99.90;;;;;;5003713;23;20379;-86
2023/07/13 19:26:23;;;;;;;2.72;1.75;;;20.70;99.90;;;;;;4977216;28;20037;-87
2023/07/13 19:31:32;;;;;;;6.03;2.20;;;20.70;99.90;;;;;;4968083;23;20152;-86
2023/07/13 19:33:59;;;;;;;4.25;1.90;;;20.40;99.90;;;;;;4955973;23;20047;-87